Time;durP1;ratioP1;P1;durP2;ratioP2;P2;SDS_P1;SDS_P2;PMS_P1;PMS_P2;Temp;Humidity;BMP_temperature;BMP_pressure;BME280_temperature;BME280_humidity;BME280_pressure;Samples;Min_cycle;Max_cycle;Signal;HPM_P1;HPM_P2
2023/04/13 00:01:08;;;;;;;5.50;2.50;;;;;;;3.56;100.00;97103.56;4160017;28;20041;-72
2023/04/13 00:03:11;;;;;;;3.85;2.47;;;;;;;3.52;100.00;97097.22;4159322;28;20101;-72
2023/04/13 00:05:12;;;;;;;4.63;2.40;;;;;;;3.50;100.00;97092.13;4160154;28;20036;-72
2023/04/13 00:07:13;;;;;;;8.25;2.53;;;;;;;3.55;100.00;97089.06;4160498;28;20540;-72
2023/04/13 00:09:17;;;;;;;3.55;2.17;;;;;;;3.55;100.00;97083.59;4162100;28;20048;-72
2023/04/13 00:11:17;;;;;;;3.13;1.90;;;;;;;3.62;100.00;97086.44;4158922;28;20041;-72
2023/04/13 00:13:18;;;;;;;4.00;1.90;;;;;;;3.55;100.00;97078.13;4159342;28;20064;-72
2023/04/13 00:15:18;;;;;;;2.80;1.73;;;;;;;3.47;100.00;97089.31;4160193;28;20049;-72
2023/04/13 00:17:18;;;;;;;2.30;1.58;;;;;;;3.42;100.00;97092.38;4159402;28;20526;-72
2023/04/13 00:19:19;;;;;;;4.68;1.90;;;;;;;3.41;100.00;97102.53;4159887;28;20379;-72
2023/04/13 00:21:19;;;;;;;5.18;1.63;;;;;;;3.44;100.00;97112.72;4158842;28;20037;-72
2023/04/13 00:23:19;;;;;;;2.08;1.50;;;;;;;3.48;100.00;97118.25;4158826;28;20041;-72
2023/04/13 00:25:20;;;;;;;2.30;1.58;;;;;;;3.45;100.00;97113.50;4159968;28;20365;-72
2023/04/13 00:27:26;;;;;;;3.33;1.75;;;;;;;3.51;100.00;97125.72;4159779;28;20561;-72
2023/04/13 00:29:26;;;;;;;2.80;1.60;;;;;;;3.49;100.00;97123.38;4165136;28;20132;-72
2023/04/13 00:31:28;;;;;;;2.85;1.83;;;;;;;3.50;100.00;97111.25;4159423;28;20131;-72
2023/04/13 00:33:28;;;;;;;4.18;1.77;;;;;;;3.44;100.00;97125.59;4158830;28;20049;-72
2023/04/13 00:35:29;;;;;;;3.15;2.10;;;;;;;3.50;100.00;97126.88;4160330;28;20080;-72
2023/04/13 00:37:31;;;;;;;2.08;1.60;;;;;;;3.56;100.00;97130.91;4160161;28;20081;-72
2023/04/13 00:39:32;;;;;;;2.17;1.30;;;;;;;3.61;100.00;97128.63;4157978;28;20053;-72
2023/04/13 00:41:32;;;;;;;2.38;1.50;;;;;;;3.63;100.00;97123.59;4160684;28;20436;-72
2023/04/13 00:43:32;;;;;;;3.17;1.60;;;;;;;3.67;100.00;97134.59;4158744;28;20414;-72
2023/04/13 00:45:37;;;;;;;2.65;1.70;;;;;;;3.70;100.00;97125.66;4159736;28;20054;-72
2023/04/13 00:47:40;;;;;;;2.08;1.40;;;;;;;3.75;100.00;97111.69;4163208;28;20053;-72
2023/04/13 00:49:41;;;;;;;3.03;1.60;;;;;;;3.82;100.00;97125.47;4159886;28;20370;-72
2023/04/13 00:51:43;;;;;;;1.60;1.02;;;;;;;3.84;100.00;97123.16;4162369;28;20128;-72
2023/04/13 00:53:43;;;;;;;;;;;;;;;3.95;100.00;97121.38;4158043;28;20063;-73
2023/04/13 00:55:44;;;;;;;1.77;1.30;;;;;;;4.20;100.00;97120.97;4160143;28;19961;-72
2023/04/13 00:57:44;;;;;;;2.35;1.15;;;;;;;4.22;100.00;97135.09;4159153;28;20778;-72
2023/04/13 00:59:48;;;;;;;1.08;0.73;;;;;;;4.29;100.00;97140.63;4159926;28;20463;-72
2023/04/13 01:01:55;;;;;;;0.90;0.70;;;;;;;4.32;100.00;97139.13;4159620;28;20045;-72
2023/04/13 01:03:55;;;;;;;0.90;0.80;;;;;;;4.42;100.00;97141.22;4158795;28;20421;-72
2023/04/13 01:06:27;;;;;;;1.35;1.05;;;;;;;4.58;100.00;97138.31;4159565;28;20049;-72
2023/04/13 01:08:37;;;;;;;2.95;1.13;;;;;;;4.63;100.00;97135.22;4158162;28;20486;-73
2023/04/13 01:10:48;;;;;;;1.00;0.85;;;;;;;4.71;100.00;97131.44;4159882;28;20085;-72
2023/04/13 01:12:58;;;;;;;0.75;0.75;;;;;;;4.67;100.00;97130.59;4175448;28;20045;-72
2023/04/13 01:15:07;;;;;;;1.33;0.98;;;;;;;4.64;100.00;97120.41;4161046;28;20049;-72
2023/04/13 01:17:20;;;;;;;0.77;0.77;;;;;;;4.62;100.00;97109.00;4160030;28;20727;-72
2023/04/13 01:19:50;;;;;;;0.90;0.90;;;;;;;4.62;100.00;97117.22;4159242;28;20351;-72
2023/04/13 01:21:53;;;;;;;1.17;1.00;;;;;;;4.61;100.00;97104.69;4159177;28;20044;-72
2023/04/13 01:24:16;;;;;;;3.45;1.02;;;;;;;4.58;100.00;97122.66;4160183;28;20265;-72
2023/04/13 01:26:17;;;;;;;;;;;;;;;4.58;100.00;97116.41;4160897;28;20072;-72
2023/04/13 01:28:20;;;;;;;0.80;0.80;;;;;;;4.56;100.00;97119.53;4157986;28;20192;-72
2023/04/13 01:30:24;;;;;;;1.75;0.75;;;;;;;4.54;100.00;97118.28;4161030;28;20049;-72
2023/04/13 01:32:26;;;;;;;1.30;0.88;;;;;;;4.56;100.00;97126.94;4162665;28;20073;-72
2023/04/13 01:34:26;;;;;;;1.23;1.10;;;;;;;4.52;100.00;97129.63;4160513;28;20042;-72
2023/04/13 01:36:27;;;;;;;1.33;1.00;;;;;;;4.53;100.00;97119.44;4163588;28;20225;-72
2023/04/13 01:38:27;;;;;;;0.90;0.75;;;;;;;4.56;100.00;97126.94;4162003;28;20558;-72
2023/04/13 01:40:29;;;;;;;1.45;1.00;;;;;;;4.59;100.00;97117.97;4161971;28;20052;-72
2023/04/13 01:42:30;;;;;;;1.25;0.98;;;;;;;4.58;100.00;97122.66;4160902;28;20073;-72
2023/04/13 01:44:32;;;;;;;1.30;0.90;;;;;;;4.50;100.00;97129.22;4162443;28;20072;-72
2023/04/13 01:46:34;;;;;;;;;;;;;;;4.50;100.00;97134.69;4163383;28;20522;-72
2023/04/13 01:48:48;;;;;;;1.92;1.08;;;;;;;4.46;100.00;97126.41;4160628;28;19936;-72
2023/04/13 01:50:57;;;;;;;2.40;1.10;;;;;;;4.38;100.00;97121.19;4161441;28;20049;-72
2023/04/13 01:53:06;;;;;;;1.75;1.00;;;;;;;4.31;100.00;97132.88;4163050;28;20390;-72
2023/04/13 01:55:09;;;;;;;1.33;1.08;;;;;;;4.29;100.00;97142.59;4161490;28;20100;-72
2023/04/13 01:57:12;;;;;;;1.63;1.00;;;;;;;4.30;100.00;97139.47;4164232;28;20088;-72
2023/04/13 01:59:15;;;;;;;2.90;1.10;;;;;;;4.28;100.00;97138.28;4161250;28;20050;-72
2023/04/13 02:01:16;;;;;;;1.52;1.10;;;;;;;4.28;100.00;97136.31;4161971;28;20045;-72
2023/04/13 02:03:17;;;;;;;1.52;0.90;;;;;;;4.29;100.00;97134.38;4161009;28;20048;-72
2023/04/13 02:05:18;;;;;;;1.90;1.10;;;;;;;4.29;100.00;97137.91;4161410;28;20041;-72
2023/04/13 02:07:18;;;;;;;1.33;1.05;;;;;;;4.25;100.00;97150.78;4162215;28;20045;-72
2023/04/13 02:09:19;;;;;;;1.55;1.00;;;;;;;4.24;100.00;97151.94;4161687;28;20114;-72
2023/04/13 02:11:19;;;;;;;1.05;0.80;;;;;;;4.24;100.00;97151.94;4161606;28;20127;-72
2023/04/13 02:13:20;;;;;;;1.45;1.20;;;;;;;4.25;100.00;97139.81;4161066;28;20672;-72
2023/04/13 02:15:20;;;;;;;1.42;1.10;;;;;;;4.28;100.00;97144.53;4161973;28;20073;-72
2023/04/13 02:17:21;;;;;;;1.13;0.90;;;;;;;4.34;100.00;97142.28;4161641;28;20057;-72
2023/04/13 02:19:21;;;;;;;2.17;1.00;;;;;;;4.38;100.00;97141.16;4161015;28;20044;-72
2023/04/13 02:21:21;;;;;;;0.93;0.85;;;;;;;4.45;100.00;97140.47;4161620;28;20040;-72
2023/04/13 02:23:21;;;;;;;1.42;1.02;;;;;;;4.53;100.00;97135.88;4160629;28;20099;-72
2023/04/13 02:25:22;;;;;;;1.45;0.80;;;;;;;4.55;100.00;97144.53;4161866;28;20049;-72
2023/04/13 02:27:23;;;;;;;1.45;0.90;;;;;;;4.60;100.00;97138.72;4166175;28;20041;-72
2023/04/13 02:29:23;;;;;;;1.15;1.00;;;;;;;4.66;100.00;97131.78;4161449;28;20362;-72
2023/04/13 02:31:23;;;;;;;0.85;0.85;;;;;;;4.71;100.00;97134.16;4165691;28;20037;-72
2023/04/13 02:33:24;;;;;;;0.85;0.80;;;;;;;4.68;100.00;97124.75;4160654;28;20041;-72
2023/04/13 02:35:24;;;;;;;3.67;1.00;;;;;;;4.77;100.00;97140.91;4160206;28;20424;-72
2023/04/13 02:37:25;;;;;;;1.52;0.80;;;;;;;4.77;100.00;97133.47;4161816;28;20403;-72
2023/04/13 02:39:25;;;;;;;0.90;0.90;;;;;;;4.72;100.00;97133.81;4161320;28;20433;-72
2023/04/13 02:41:25;;;;;;;2.00;0.85;;;;;;;4.62;100.00;97133.66;4143857;28;20074;-72
2023/04/13 02:43:26;;;;;;;1.00;0.90;;;;;;;4.55;100.00;97141.78;4162024;28;20069;-72
2023/04/13 02:45:27;;;;;;;0.70;0.70;;;;;;;4.53;100.00;97147.63;4164616;28;20053;-72
2023/04/13 02:47:27;;;;;;;2.47;1.10;;;;;;;4.60;100.00;97152.44;4161075;28;20034;-72
2023/04/13 02:49:27;;;;;;;2.80;1.10;;;;;;;4.58;100.00;97147.31;4160266;28;20451;-72
2023/04/13 02:51:28;;;;;;;1.55;0.90;;;;;;;4.53;100.00;97157.81;4160621;28;20071;-72
2023/04/13 02:53:28;;;;;;;4.18;1.23;;;;;;;4.50;100.00;97149.16;4161179;28;20049;-72
2023/04/13 02:55:28;;;;;;;3.58;1.20;;;;;;;4.48;100.00;97147.97;4160844;28;20128;-72
2023/04/13 02:57:29;;;;;;;1.20;0.90;;;;;;;4.46;100.00;97151.06;4161101;28;20604;-72
2023/04/13 02:59:30;;;;;;;1.23;0.95;;;;;;;4.44;100.00;97156.13;4161534;28;20037;-72
2023/04/13 03:01:30;;;;;;;1.92;1.10;;;;;;;4.47;100.00;97149.94;4160492;28;20140;-72
2023/04/13 03:03:30;;;;;;;1.23;1.10;;;;;;;4.49;100.00;97142.13;4160783;28;20061;-72
2023/04/13 03:05:31;;;;;;;2.60;1.17;;;;;;;4.50;100.00;97137.44;4159961;28;20057;-72
2023/04/13 03:07:32;;;;;;;2.42;1.35;;;;;;;4.48;100.00;97128.81;4160273;28;20033;-72
2023/04/13 03:09:33;;;;;;;1.67;1.30;;;;;;;4.56;100.00;97125.00;4160481;28;20390;-72
2023/04/13 03:11:33;;;;;;;1.40;1.20;;;;;;;4.61;100.00;97118.38;4161373;28;20099;-72
2023/04/13 03:13:34;;;;;;;2.35;1.45;;;;;;;4.64;100.00;97128.63;4160743;28;20049;-72
2023/04/13 03:15:35;;;;;;;2.10;1.35;;;;;;;4.59;100.00;97128.94;4160516;28;20048;-72
2023/04/13 03:17:39;;;;;;;2.10;1.55;;;;;;;4.58;100.00;97133.63;4161426;28;20069;-72
2023/04/13 03:19:39;;;;;;;5.90;1.60;;;;;;;4.57;100.00;97131.25;4160307;28;20389;-72
2023/04/13 03:21:40;;;;;;;2.28;1.40;;;;;;;4.54;100.00;97130.03;4163509;28;20080;-72
2023/04/13 03:23:40;;;;;;;2.05;1.42;;;;;;;4.57;100.00;97134.78;4158849;28;20073;-72
2023/04/13 03:25:41;;;;;;;2.60;1.40;;;;;;;4.74;100.00;97125.22;4160392;28;20589;-72
2023/04/13 03:27:41;;;;;;;2.00;1.33;;;;;;;4.84;100.00;97132.00;4160773;28;20583;-72
2023/04/13 03:29:41;;;;;;;2.22;1.40;;;;;;;4.75;100.00;97121.31;4159534;28;20037;-72
2023/04/13 03:31:42;;;;;;;1.55;1.40;;;;;;;4.73;100.00;97129.91;4160530;28;20485;-72
2023/04/13 03:33:42;;;;;;;2.72;1.45;;;;;;;4.68;100.00;97121.22;4160095;28;20061;-72
2023/04/13 03:35:42;;;;;;;1.30;1.20;;;;;;;4.64;100.00;97125.88;4162253;28;20382;-72
2023/04/13 03:37:43;;;;;;;4.28;1.42;;;;;;;4.62;100.00;97120.75;4160320;28;20046;-72
2023/04/13 03:39:44;;;;;;;3.50;1.20;;;;;;;4.65;100.00;97130.97;4164672;28;20045;-72
2023/04/13 03:41:44;;;;;;;1.52;1.30;;;;;;;4.63;100.00;97116.06;4160285;28;20081;-72
2023/04/13 03:43:44;;;;;;;3.42;1.30;;;;;;;4.56;100.00;97118.72;4158544;28;20042;-72
2023/04/13 03:45:45;;;;;;;2.20;1.40;;;;;;;4.54;100.00;97113.59;4161546;28;20107;-72
2023/04/13 03:47:45;;;;;;;3.53;1.20;;;;;;;4.54;100.00;97121.03;4161358;28;20090;-72
2023/04/13 03:49:46;;;;;;;1.00;0.90;;;;;;;4.50;100.00;97115.53;4159346;28;20433;-72
2023/04/13 03:51:46;;;;;;;3.85;1.10;;;;;;;4.49;100.00;97122.16;4158843;28;20053;-72
2023/04/13 03:53:47;;;;;;;4.38;1.35;;;;;;;4.48;100.00;97129.59;4158791;28;20120;-72
2023/04/13 03:55:47;;;;;;;1.73;1.33;;;;;;;4.48;100.00;97126.84;4160453;28;20042;-72
2023/04/13 03:57:48;;;;;;;2.00;1.42;;;;;;;4.46;100.00;97128.34;4159377;28;20046;-72
2023/04/13 03:59:48;;;;;;;1.73;1.10;;;;;;;4.40;100.00;97125.16;4160757;28;20064;-72
2023/04/13 04:01:49;;;;;;;1.63;1.20;;;;;;;4.37;100.00;97134.09;4159321;28;20541;-72
2023/04/13 04:03:49;;;;;;;3.13;1.10;;;;;;;4.37;100.00;97136.84;4158119;28;20049;-72
2023/04/13 04:05:50;;;;;;;3.05;1.20;;;;;;;4.41;100.00;97136.91;4160502;28;20049;-72
2023/04/13 04:07:50;;;;;;;2.28;1.13;;;;;;;4.41;100.00;97142.38;4159814;28;20496;-72
2023/04/13 04:09:50;;;;;;;1.58;1.00;;;;;;;4.50;100.00;97140.94;4164893;28;20106;-72
2023/04/13 04:11:51;;;;;;;2.67;1.00;;;;;;;4.47;100.00;97129.97;4159743;28;20536;-72
2023/04/13 04:13:51;;;;;;;1.80;1.05;;;;;;;4.48;100.00;97131.53;4158997;28;20076;-72
2023/04/13 04:15:51;;;;;;;4.38;1.25;;;;;;;4.49;100.00;97133.13;4160606;28;20139;-72
2023/04/13 04:17:51;;;;;;;1.35;1.00;;;;;;;4.49;100.00;97142.13;4159141;28;20524;-72
2023/04/13 04:19:52;;;;;;;1.33;1.10;;;;;;;4.49;100.00;97141.34;4159902;28;20061;-72
2023/04/13 04:21:56;;;;;;;1.60;1.10;;;;;;;4.44;100.00;97136.94;4160205;28;20144;-72
2023/04/13 04:23:59;;;;;;;1.63;1.20;;;;;;;4.44;100.00;97139.69;4157986;28;20069;-72
2023/04/13 04:26:01;;;;;;;;;;;;;;;4.39;100.00;97148.25;4163419;28;20068;-72
2023/04/13 04:28:03;;;;;;;2.95;1.02;;;;;;;4.39;100.00;97148.25;4164229;28;19920;-72
2023/04/13 04:30:05;;;;;;;1.75;1.15;;;;;;;4.39;100.00;97158.41;4158881;28;20044;-72
2023/04/13 04:32:09;;;;;;;4.97;1.10;;;;;;;4.35;100.00;97166.56;4159391;28;20446;-72
2023/04/13 04:34:10;;;;;;;1.40;1.00;;;;;;;4.35;100.00;97166.56;4158618;28;20083;-72
2023/04/13 04:36:12;;;;;;;2.17;0.90;;;;;;;4.30;100.00;97174.28;4159407;28;20029;-72
2023/04/13 04:38:13;;;;;;;1.23;0.98;;;;;;;4.44;100.00;97185.47;4161096;28;20029;-72
2023/04/13 04:40:14;;;;;;;4.82;1.45;;;;;;;4.43;100.00;97187.41;4159040;28;20473;-72
2023/04/13 04:42:17;;;;;;;2.33;1.10;;;;;;;4.45;100.00;97200.72;4160320;28;20565;-72
2023/04/13 04:44:17;;;;;;;1.88;0.98;;;;;;;4.47;100.00;97201.97;4158859;28;20041;-72
2023/04/13 04:46:18;;;;;;;2.08;1.10;;;;;;;4.59;100.00;97208.38;4160495;28;20033;-72
2023/04/13 04:48:19;;;;;;;2.28;1.10;;;;;;;4.55;100.00;97197.38;4159912;28;20076;-72
2023/04/13 04:50:19;;;;;;;2.63;1.10;;;;;;;4.57;100.00;97202.47;4158934;28;20052;-72
2023/04/13 04:52:19;;;;;;;3.85;1.00;;;;;;;4.55;100.00;97208.34;4159790;28;20032;-72
2023/04/13 04:54:20;;;;;;;4.88;1.00;;;;;;;4.57;99.61;97216.19;4156610;28;20065;-72
2023/04/13 04:56:20;;;;;;;2.63;1.15;;;;;;;4.65;99.44;97217.88;4162166;28;20139;-71
2023/04/13 04:58:21;;;;;;;0.75;0.75;;;;;;;4.70;99.23;97226.53;4160617;28;20094;-71
2023/04/13 05:00:21;;;;;;;0.88;0.77;;;;;;;4.69;99.79;97218.69;4164334;28;20038;-71
2023/04/13 05:02:22;;;;;;;3.20;1.30;;;;;;;4.67;100.00;97224.53;4165075;28;20172;-71
2023/04/13 05:04:22;;;;;;;3.72;1.10;;;;;;;4.74;100.00;97229.34;4160029;28;20393;-71
2023/04/13 05:06:22;;;;;;;1.52;0.90;;;;;;;4.87;98.96;97236.16;4106449;28;20424;-72
2023/04/13 05:08:23;;;;;;;1.67;0.90;;;;;;;4.92;99.36;97235.06;4163321;28;20490;-72
2023/04/13 05:10:25;;;;;;;3.83;1.15;;;;;;;4.99;99.20;97243.38;4161950;28;20132;-72
2023/04/13 05:12:26;;;;;;;1.92;1.13;;;;;;;5.05;99.61;97225.47;4162822;28;20998;-72
2023/04/13 05:14:26;;;;;;;2.42;1.02;;;;;;;5.11;99.55;97239.63;4162673;28;20037;-72
2023/04/13 05:16:29;;;;;;;3.75;1.05;;;;;;;5.12;100.00;97217.31;4162985;28;20060;-71
2023/04/13 05:18:31;;;;;;;2.20;1.10;;;;;;;5.14;100.00;97223.22;4163726;28;20367;-71
2023/04/13 05:20:33;;;;;;;1.42;1.20;;;;;;;5.16;100.00;97229.13;4162597;28;20049;-71
2023/04/13 05:22:34;;;;;;;2.35;1.23;;;;;;;5.23;99.16;97225.69;4163228;28;20057;-71
2023/04/13 05:24:34;;;;;;;2.35;0.95;;;;;;;5.26;99.08;97230.41;4162776;28;20098;-71
2023/04/13 05:26:35;;;;;;;3.08;1.08;;;;;;;5.35;100.00;97217.19;4161993;28;20502;-71
2023/04/13 05:28:35;;;;;;;1.73;1.10;;;;;;;5.40;98.25;97214.13;4164095;28;20043;-71
2023/04/13 05:30:36;;;;;;;4.65;1.75;;;;;;;5.44;98.71;97225.91;4162817;28;20449;-71
2023/04/13 05:32:36;;;;;;;2.80;1.10;;;;;;;5.42;98.06;97220.03;4159577;28;20034;-71
2023/04/13 05:34:37;;;;;;;1.10;0.98;;;;;;;5.40;98.87;97227.84;4161946;28;20064;-71
2023/04/13 05:36:38;;;;;;;2.05;1.00;;;;;;;5.42;98.13;97231.00;4162771;28;20045;-71
2023/04/13 05:38:38;;;;;;;1.90;1.05;;;;;;;5.40;98.32;97218.84;4162431;28;20041;-71
2023/04/13 05:40:38;;;;;;;1.98;1.00;;;;;;;5.38;98.26;97221.13;4162030;28;20394;-71
2023/04/13 05:42:41;;;;;;;3.88;1.30;;;;;;;5.39;98.59;97220.78;4161273;28;20041;-71
2023/04/13 05:44:41;;;;;;;;;;;;;;;5.35;98.28;97228.97;4161598;28;20057;-71
2023/04/13 05:46:41;;;;;;;2.05;1.27;;;;;;;5.39;97.74;97220.78;4161405;28;20330;-71
2023/04/13 05:48:42;;;;;;;1.88;1.00;;;;;;;5.36;97.25;97216.81;4162173;28;20045;-71
2023/04/13 05:50:43;;;;;;;1.33;1.00;;;;;;;5.42;97.63;97217.28;4161499;28;20073;-70
2023/04/13 05:52:43;;;;;;;1.35;1.20;;;;;;;5.42;96.86;97228.25;4161597;28;20472;-71
2023/04/13 05:54:43;;;;;;;3.45;1.30;;;;;;;5.40;97.44;97232.53;4161209;28;20115;-71
2023/04/13 05:56:44;;;;;;;1.25;1.10;;;;;;;5.46;98.02;97239.25;4161651;28;20148;-71
2023/04/13 05:58:45;;;;;;;2.70;1.10;;;;;;;5.54;97.99;97228.00;4163518;28;20037;-71
2023/04/13 06:00:45;;;;;;;3.47;1.42;;;;;;;5.70;96.15;97236.00;4161131;28;20119;-71
2023/04/13 06:02:47;;;;;;;1.65;1.13;;;;;;;5.78;96.75;97232.16;4160792;28;20033;-71
2023/04/13 06:04:51;;;;;;;2.10;1.30;;;;;;;5.79;97.06;97233.78;4163976;28;20041;-71
2023/04/13 06:06:51;;;;;;;1.98;1.10;;;;;;;5.83;95.62;97231.06;4162748;28;20068;-71
2023/04/13 06:08:52;;;;;;;4.00;1.30;;;;;;;5.95;96.25;97228.06;4160875;28;20047;-71
2023/04/13 06:10:52;;;;;;;1.35;1.05;;;;;;;5.98;96.69;97232.03;4161670;28;20048;-71
2023/04/13 06:12:53;;;;;;;1.65;1.10;;;;;;;6.05;96.71;97224.63;4160136;28;20422;-71
2023/04/13 06:14:53;;;;;;;2.63;1.25;;;;;;;6.10;96.04;97224.28;4160756;28;20049;-71
2023/04/13 06:16:54;;;;;;;3.95;1.23;;;;;;;6.11;96.23;97230.56;4162133;28;20337;-71
2023/04/13 06:18:54;;;;;;;4.80;2.20;;;;;;;6.14;96.33;97241.59;4160743;28;20154;-71
2023/04/13 06:20:56;;;;;;;4.20;1.00;;;;;;;6.13;96.74;97244.72;4161186;28;20077;-71
2023/04/13 06:22:56;;;;;;;4.13;1.05;;;;;;;6.18;95.50;97233.38;4161143;28;20052;-71
2023/04/13 06:24:57;;;;;;;3.67;1.15;;;;;;;6.17;96.58;97240.03;4160855;28;20381;-71
2023/04/13 06:26:58;;;;;;;5.57;1.65;;;;;;;6.11;96.03;97233.28;4160260;28;20080;-71
2023/04/13 06:28:59;;;;;;;5.78;1.23;;;;;;;6.12;96.79;97226.63;4160676;28;20124;-71
2023/04/13 06:30:59;;;;;;;5.53;1.45;;;;;;;6.18;96.99;97239.66;4166306;28;20453;-71
2023/04/13 06:33:00;;;;;;;1.63;1.00;;;;;;;6.17;96.41;97229.03;4159364;28;20466;-71
2023/04/13 06:35:02;;;;;;;1.48;1.00;;;;;;;6.18;96.50;97231.41;4162280;28;20253;-71
2023/04/13 06:37:03;;;;;;;2.00;1.23;;;;;;;6.22;96.65;97234.19;4161500;28;20398;-71
2023/04/13 06:39:04;;;;;;;4.72;1.38;;;;;;;6.29;96.26;97245.25;4163115;28;20045;-71
2023/04/13 06:41:05;;;;;;;3.13;1.10;;;;;;;6.34;96.92;97233.09;4159694;28;20038;-71
2023/04/13 06:43:05;;;;;;;3.17;1.50;;;;;;;6.32;96.64;97240.94;4160569;28;20041;-71
2023/04/13 06:45:07;;;;;;;2.95;1.15;;;;;;;6.36;96.95;97245.28;4161561;28;20111;-71
2023/04/13 06:47:08;;;;;;;2.45;0.93;;;;;;;6.39;96.66;97247.28;4159844;28;20052;-71
2023/04/13 06:49:08;;;;;;;1.98;1.10;;;;;;;6.47;96.28;97245.38;4161300;28;20489;-71
2023/04/13 06:51:08;;;;;;;3.90;1.10;;;;;;;6.58;96.50;97237.22;4160554;28;20128;-71
2023/04/13 06:53:09;;;;;;;1.88;1.00;;;;;;;6.64;95.86;97239.22;4160001;28;20067;-71
2023/04/13 06:55:09;;;;;;;1.50;1.02;;;;;;;6.61;96.39;97223.50;4160876;28;20092;-71
2023/04/13 06:57:12;;;;;;;3.15;1.10;;;;;;;6.64;95.92;97227.44;4160801;28;20208;-71
2023/04/13 06:59:12;;;;;;;4.30;1.50;;;;;;;6.63;95.11;97242.38;4160711;28;20321;-71
2023/04/13 07:01:12;;;;;;;1.80;1.10;;;;;;;6.61;95.32;97231.72;4160535;28;20128;-71
2023/04/13 07:03:13;;;;;;;1.80;0.98;;;;;;;6.68;94.91;97237.28;4160945;28;20069;-71
2023/04/13 07:05:14;;;;;;;2.20;1.17;;;;;;;6.64;95.02;97235.69;4160125;28;20041;-71
2023/04/13 07:07:14;;;;;;;3.38;1.20;;;;;;;6.61;95.62;97247.44;4159829;28;20065;-71
2023/04/13 07:09:14;;;;;;;5.53;1.55;;;;;;;6.66;95.14;97231.38;4160651;28;20045;-71
2023/04/13 07:11:15;;;;;;;1.73;1.10;;;;;;;6.65;94.34;97232.56;4159863;28;20687;-71
2023/04/13 07:13:16;;;;;;;4.18;1.30;;;;;;;6.67;95.52;97232.97;4159669;28;20209;-71
2023/04/13 07:15:16;;;;;;;2.47;0.98;;;;;;;6.81;94.91;97231.50;4159984;28;20029;-71
2023/04/13 07:17:17;;;;;;;2.72;1.33;;;;;;;6.86;94.25;97242.91;4160443;28;20072;-71
2023/04/13 07:19:19;;;;;;;3.22;1.20;;;;;;;6.91;94.73;97239.78;4160094;28;20081;-71
2023/04/13 07:21:20;;;;;;;3.38;1.30;;;;;;;6.90;94.19;97238.22;4160127;28;20037;-71
2023/04/13 07:23:21;;;;;;;1.20;1.10;;;;;;;6.94;94.16;97236.25;4159430;28;20056;-71
2023/04/13 07:25:21;;;;;;;3.75;1.10;;;;;;;6.85;94.91;97240.53;4159932;28;20612;-71
2023/04/13 07:27:22;;;;;;;4.88;1.63;;;;;;;6.80;95.41;97240.91;4160025;28;20084;-71
2023/04/13 07:29:25;;;;;;;5.88;2.60;;;;;;;6.80;95.52;97249.94;4159574;28;20111;-71
2023/04/13 07:31:26;;;;;;;5.28;2.72;;;;;;;6.73;95.50;97249.91;4160915;28;20123;-71
2023/04/13 07:33:27;;;;;;;4.93;1.92;;;;;;;6.72;96.31;97257.34;4161347;28;20033;-71
2023/04/13 07:35:27;;;;;;;5.10;2.92;;;;;;;6.77;95.61;97264.44;4160021;28;20129;-71
2023/04/13 07:37:28;;;;;;;4.38;2.30;;;;;;;6.85;96.34;97263.31;4162245;28;20071;-71
2023/04/13 07:39:28;;;;;;;3.97;1.90;;;;;;;6.95;96.08;97257.13;4162797;28;20037;-71
2023/04/13 07:41:29;;;;;;;8.50;4.28;;;;;;;6.96;94.18;97255.94;4160108;28;20127;-71
2023/04/13 07:43:29;;;;;;;7.32;3.63;;;;;;;6.95;94.56;97251.63;4158644;28;20480;-71
2023/04/13 07:45:30;;;;;;;4.32;2.42;;;;;;;6.98;93.88;97256.34;4163828;28;20041;-71
2023/04/13 07:47:31;;;;;;;7.93;3.35;;;;;;;7.08;94.48;97259.53;4159070;28;20050;-71
2023/04/13 07:49:32;;;;;;;8.98;4.68;;;;;;;7.17;95.57;97260.75;4160333;28;20041;-71
2023/04/13 07:51:33;;;;;;;6.20;2.58;;;;;;;7.24;95.53;97258.06;4160174;28;20355;-71
2023/04/13 07:53:34;;;;;;;3.60;1.58;;;;;;;7.44;92.87;97274.25;4158334;28;20053;-71
2023/04/13 07:55:36;;;;;;;4.25;1.60;;;;;;;7.47;94.06;97268.00;4159721;28;20148;-71
2023/04/13 07:57:36;;;;;;;3.15;1.70;;;;;;;7.55;91.61;97273.13;4160476;28;20041;-71
2023/04/13 07:59:36;;;;;;;6.50;2.78;;;;;;;7.56;92.74;97265.66;4160045;28;20056;-71
2023/04/13 08:01:38;;;;;;;2.60;1.40;;;;;;;7.66;92.07;97281.44;4179412;28;20087;-71
2023/04/13 08:03:38;;;;;;;2.42;1.63;;;;;;;7.68;90.79;97281.03;4165157;28;20139;-71
2023/04/13 08:05:38;;;;;;;5.70;1.63;;;;;;;7.64;91.91;97274.75;4162865;28;20155;-71
2023/04/13 08:07:39;;;;;;;3.20;1.50;;;;;;;7.73;92.67;97277.91;4158918;28;20152;-71
2023/04/13 08:09:41;;;;;;;1.85;1.13;;;;;;;7.86;93.63;97279.94;4160180;28;20432;-71
2023/04/13 08:11:41;;;;;;;3.95;2.15;;;;;;;7.98;91.50;97273.28;4159835;28;20033;-71
2023/04/13 08:13:42;;;;;;;8.55;3.60;;;;;;;8.05;90.21;97286.28;4164747;28;20436;-71
2023/04/13 08:15:42;;;;;;;7.15;3.15;;;;;;;8.10;90.25;97285.88;4159593;28;20072;-71
2023/04/13 08:17:43;;;;;;;5.72;2.58;;;;;;;8.14;90.76;97287.47;4160301;28;20034;-72
2023/04/13 08:19:43;;;;;;;5.00;1.98;;;;;;;8.15;91.07;97282.75;4159415;28;20045;-72
2023/04/13 08:21:43;;;;;;;4.82;1.60;;;;;;;8.20;89.28;97273.31;4158584;28;20034;-72
2023/04/13 08:23:44;;;;;;;5.43;2.17;;;;;;;8.14;88.31;97286.69;4160765;28;20049;-72
2023/04/13 08:25:44;;;;;;;4.20;1.38;;;;;;;8.14;88.97;97287.47;4159282;28;20052;-72
2023/04/13 08:27:44;;;;;;;3.72;1.98;;;;;;;8.22;90.06;97287.50;4159521;28;20029;-72
2023/04/13 08:29:45;;;;;;;2.50;1.30;;;;;;;8.22;88.75;97281.97;4160214;28;20047;-72
2023/04/13 08:31:46;;;;;;;1.83;1.40;;;;;;;8.23;88.99;97275.28;4158810;28;20037;-72
2023/04/13 08:33:46;;;;;;;3.00;1.10;;;;;;;8.34;88.42;97281.59;4158443;28;20045;-72
2023/04/13 08:35:46;;;;;;;6.93;2.65;;;;;;;8.38;88.23;97294.22;4163775;28;20121;-72
2023/04/13 08:37:47;;;;;;;3.35;1.10;;;;;;;8.48;90.44;97289.13;4160905;28;20369;-72
2023/04/13 08:39:47;;;;;;;1.83;0.93;;;;;;;8.58;89.14;97289.13;4161741;28;20481;-72
2023/04/13 08:41:49;;;;;;;3.42;1.20;;;;;;;8.52;87.64;97287.13;4162447;28;20077;-72
2023/04/13 08:43:49;;;;;;;5.30;1.30;;;;;;;8.48;88.49;97281.63;4162318;28;20041;-71
2023/04/13 08:45:50;;;;;;;3.17;1.77;;;;;;;8.46;87.77;97274.94;4162102;28;20083;-71
2023/04/13 08:47:50;;;;;;;3.47;1.27;;;;;;;8.36;88.34;97285.56;4164111;28;20044;-71
2023/04/13 08:49:52;;;;;;;3.47;1.00;;;;;;;8.26;88.66;97282.75;4162474;28;20045;-72
2023/04/13 08:51:56;;;;;;;2.03;1.10;;;;;;;8.41;89.14;97287.94;4162923;28;20481;-72
2023/04/13 08:53:57;;;;;;;2.97;1.17;;;;;;;8.49;87.93;97283.22;4161042;28;20026;-72
2023/04/13 08:56:00;;;;;;;3.67;1.20;;;;;;;8.35;88.00;97291.47;4162625;28;20466;-72
2023/04/13 08:58:02;;;;;;;2.03;1.10;;;;;;;8.31;88.84;97290.66;4162546;28;20037;-72
2023/04/13 09:00:15;;;;;;;2.42;0.85;;;;;;;8.24;88.56;97302.44;4161959;28;20037;-72
2023/04/13 09:02:22;;;;;;;3.88;1.00;;;;;;;8.21;89.23;97299.69;4165852;28;20473;-72
2023/04/13 09:04:27;;;;;;;4.40;1.20;;;;;;;8.33;89.16;97304.81;4163350;28;20041;-72
2023/04/13 09:06:34;;;;;;;1.73;1.10;;;;;;;8.44;89.10;97317.47;4162141;28;20087;-72
2023/04/13 09:08:35;;;;;;;2.70;1.02;;;;;;;8.54;89.08;97320.63;4167284;28;20423;-72
2023/04/13 09:10:35;;;;;;;5.57;1.30;;;;;;;8.70;88.94;97319.06;4161775;28;20103;-72
2023/04/13 09:12:36;;;;;;;1.58;1.45;;;;;;;8.84;88.41;97318.25;4161919;28;20550;-72
2023/04/13 09:14:37;;;;;;;2.40;1.10;;;;;;;8.96;88.75;97317.88;4162361;28;20114;-72
2023/04/13 09:16:41;;;;;;;2.22;1.08;;;;;;;9.08;86.06;97321.41;4162067;28;20124;-72
2023/04/13 09:18:52;;;;;;;3.10;1.10;;;;;;;9.03;86.68;97322.59;4164749;28;20432;-72
2023/04/13 09:20:56;;;;;;;4.45;1.42;;;;;;;9.02;86.78;97332.06;4162067;28;20390;-72
2023/04/13 09:22:57;;;;;;;4.47;1.30;;;;;;;9.04;86.06;97332.47;4166145;28;20498;-71
2023/04/13 09:24:57;;;;;;;4.05;1.10;;;;;;;9.03;86.16;97327.34;4162070;28;20164;-71
2023/04/13 09:26:58;;;;;;;2.95;1.05;;;;;;;9.05;85.85;97330.47;4162691;28;20049;-71
2023/04/13 09:28:58;;;;;;;4.90;1.33;;;;;;;9.02;86.54;97329.31;4161703;28;20556;-71
2023/04/13 09:31:04;;;;;;;1.73;1.10;;;;;;;9.13;85.65;97329.28;4162556;28;20056;-71
2023/04/13 09:33:06;;;;;;;3.35;1.33;;;;;;;9.24;86.64;97330.06;4165211;28;20466;-71
2023/04/13 09:35:07;;;;;;;1.40;0.90;;;;;;;9.17;84.06;97330.06;4163113;28;20409;-71
2023/04/13 09:37:12;;;;;;;5.38;1.98;;;;;;;9.21;85.24;97331.66;4165851;28;20124;-72